Terminal Aerodrome Forecast
Issued by NWS

Home | Current Version | Previous Version | Text Only | Print | Product List | Glossary On
Versions: 1 2 3 4 5 6 7 8 9 10 11 12 13 14 15 16 17 18 19 20 21 22 23 24
659
FTUS45 KPSR 270520
TAFPHX
TAF
KPHX 270520Z 2706/2812 25005KT P6SM SCT160 BKN250
     FM271000 12008KT P6SM FEW120 SCT140 BKN250
     FM272300 26008KT P6SM FEW100 SCT140 SCT200
     FM280800 12005KT P6SM FEW120=

USA.gov is the U.S. government's official web portal to all federal, state and local government web resources and services.